Terminal Aerodrome Forecast
Issued by NWS

Home | Current Version | Previous Version | Text Only | Print | Product List | Glossary On
Versions: 1 2 3 4 5 6 7 8 9 10 11 12 13 14 15 16 17 18 19
000
FTUS44 KTSA 182320
TAFMLC
TAF
KMLC 182320Z 1900/1924 VRB03KT 5SM BR OVC005
      TEMPO 1910/1914 1/2SM FG OVC001
     FM191800 17006G15KT P6SM BKN015
     FM192000 18007G15KT P6SM SCT015 BKN250=

USA.gov is the U.S. government's official web portal to all federal, state and local government web resources and services.